Flinterbrise — PHCA — position and weather

sailwx.info

Track history (hours):
 
Tides and Currents Weather Stations Pressure Air Temp Water Temp Dewpoint Dewpoint Depression Visibility Wind Speed Wind Dir Waves Ship Positions

Flinterbrise

Last reported at 2015-Apr-24 07:06 UTC. Time now 2015-May-04 00:57 UTC.
Position N 55°38' E 015°30'.
Warning: this ship's position is 9 days out of date.

Length 83 m; draft 5.4 m.

Type: Cargo ship. MMSI: 246044000.

Date/timePositionNaut miles runAvg speedWind from/ knotsBaromVisibWave heightAir tempDewpointWater temp
2015-Apr-24 07:06N 55°38' E 015°30'6 9.7
2015-Apr-24 06:30N 55°35' E 015°21'9 9.6
2015-Apr-24 05:33N 55°31' E 015°07'10 9.7
2015-Apr-24 04:33N 55°27' E 014°51'10 9.6
2015-Apr-24 03:33N 55°22' E 014°37'10 9.5
2015-Apr-24 02:29N 55°14' E 014°26'9 9.3
2015-Apr-24 01:31N 55°07' E 014°16'28 9.6
2015-Apr-23 22:33N 54°54' E 013°32'29 9.7
2015-Apr-23 19:33N 54°45' E 012°44'9 9.2
2015-Apr-23 18:33N 54°39' E 012°33'9 9.3
2015-Apr-23 17:33N 54°33' E 012°20'9 9.0
2015-Apr-23 16:33N 54°25' E 012°11'9 9.4
2015-Apr-23 15:33N 54°25' E 011°55'9 9.3
2015-Apr-23 14:33N 54°27' E 011°39'10 9.9
2015-Apr-23 13:33N 54°31' E 011°24'10 9.8
2015-Apr-23 12:33N 54°35' E 011°09'21 9.7
2015-Apr-23 10:20N 54°33' E 010°32'910.9
2015-Apr-23 09:33N 54°29' E 010°19'9 6.4
2015-Apr-23 08:06N 54°22' E 010°09'2 2.4
2015-Apr-23 07:05N 54°22' E 010°04'4 7.8
2015-Apr-23 06:34N 54°21' E 009°58'27 6.7
2015-Apr-23 02:30N 54°05' E 009°19'6 6.3
2015-Apr-23 01:33N 53°59' E 009°17'8 7.6
2015-Apr-23 00:33N 53°54' E 009°09'2 1.6
2015-Apr-22 23:33N 53°53' E 009°06'9 8.5
2015-Apr-22 22:33N 53°50' E 008°53'8 7.7
2015-Apr-22 21:33N 53°54' E 008°41'8 7.8
2015-Apr-22 20:33N 53°58' E 008°30'10 8.5
2015-Apr-22 19:26N 53°59' E 008°14'11 9.7
2015-Apr-22 18:17N 53°58' E 007°55'6 8.5
2015-Apr-22 17:33N 53°57' E 007°45'8 8.2
2015-Apr-22 16:32N 53°56' E 007°31'62 8.9
2015-Apr-22 09:33N 53°39' E 005°50'9 9.2
2015-Apr-22 08:33N 53°35' E 005°35'10 9.7
2015-Apr-22 07:33N 53°32' E 005°20'1010.2
2015-Apr-22 06:33N 53°29' E 005°04'10 9.9
2015-Apr-22 05:32N 53°26' E 004°47'42 8.3
2015-Apr-22 00:32N 52°49' E 004°13'8 8.2
2015-Apr-21 23:33N 52°43' E 004°06'8 8.0
2015-Apr-21 22:33N 52°36' E 003°60'16 8.0
2015-Apr-21 20:33N 52°20' E 003°52'9 8.9
2015-Apr-21 19:31N 52°11' E 003°54'9 9.6
2015-Apr-21 18:32N 52°02' E 003°57'1010.0
2015-Apr-21 17:33N 51°57' E 004°11'9 8.9
2015-Apr-21 16:33N 51°54' E 004°25'0 0.4
2015-Apr-21 15:33N 51°54' E 004°25'0 0.0
2015-Apr-21 14:33N 51°54' E 004°25'0 0.0
2015-Apr-21 13:33N 51°54' E 004°25'0 0.2
2015-Apr-21 12:33N 51°54' E 004°25'0 0.2
2015-Apr-21 11:33N 51°54' E 004°25'2 1.7
2015-Apr-21 10:33N 51°54' E 004°28'0 0.2
2015-Apr-21 09:33N 51°54' E 004°28'0 0.0
2015-Apr-21 08:30N 51°54' E 004°28'0 0.0
2015-Apr-21 07:33N 51°54' E 004°28'0 0.0
2015-Apr-21 06:33N 51°54' E 004°28'0 0.0
2015-Apr-21 05:27N 51°54' E 004°28'0 0.0
2015-Apr-21 04:29N 51°54' E 004°28'0 0.0
2015-Apr-21 03:32N 51°54' E 004°28'0 0.0
2015-Apr-21 02:32N 51°54' E 004°28'0 0.0
2015-Apr-21 01:14N 51°54' E 004°28'0 0.0
2015-Apr-21 00:32N 51°54' E 004°28'0 0.0
2015-Apr-20 23:32N 51°54' E 004°28'0 0.0
2015-Apr-20 22:32N 51°54' E 004°28'0 0.0
2015-Apr-20 21:32N 51°54' E 004°28'0 0.0
2015-Apr-20 20:32N 51°54' E 004°28'0 0.0
2015-Apr-20 19:32N 51°54' E 004°28'0 0.0
2015-Apr-20 18:32N 51°54' E 004°28'0 0.0
2015-Apr-20 17:26N 51°54' E 004°28'0 0.0
2015-Apr-20 16:32N 51°54' E 004°28'0 0.0
2015-Apr-20 15:32N 51°54' E 004°28'0 0.0
2015-Apr-20 14:29N 51°54' E 004°28'0 0.0
2015-Apr-20 13:33N 51°54' E 004°28'0 0.0
2015-Apr-20 12:29N 51°54' E 004°28'0 0.0
2015-Apr-20 11:32N 51°54' E 004°28'0 0.0
2015-Apr-20 10:29N 51°54' E 004°28'0 0.0
2015-Apr-20 09:32N 51°54' E 004°28'0 0.0
2015-Apr-20 08:32N 51°54' E 004°28'0 0.0
2015-Apr-20 07:32N 51°54' E 004°28'0 0.0
2015-Apr-20 06:33N 51°54' E 004°28'0 0.0
2015-Apr-20 05:32N 51°54' E 004°28'0 0.0
2015-Apr-20 04:30N 51°54' E 004°28'0 0.0
2015-Apr-20 03:32N 51°54' E 004°28'0 0.0
2015-Apr-20 02:32N 51°54' E 004°28'0 0.0
2015-Apr-20 01:32N 51°54' E 004°28'0 0.0
2015-Apr-20 00:32N 51°54' E 004°28'0 0.0
2015-Apr-19 23:29N 51°54' E 004°28'0 0.0
2015-Apr-19 22:32N 51°54' E 004°28'0 0.0
2015-Apr-19 21:32N 51°54' E 004°28'0 0.0
2015-Apr-19 20:32N 51°54' E 004°28'0 0.0
2015-Apr-19 19:32N 51°54' E 004°28'0 0.0
2015-Apr-19 18:32N 51°54' E 004°28'0 0.0
2015-Apr-19 17:32N 51°54' E 004°28'0 0.0
2015-Apr-19 16:32N 51°54' E 004°28'0 0.0
2015-Apr-19 15:32N 51°54' E 004°28'0 0.0
2015-Apr-19 14:32N 51°54' E 004°28'0 0.0
2015-Apr-19 13:29N 51°54' E 004°28'0 0.0
2015-Apr-19 12:32N 51°54' E 004°28'0 0.0
2015-Apr-19 11:30N 51°54' E 004°28'0 0.0
2015-Apr-19 10:24N 51°54' E 004°28'0 0.0
2015-Apr-19 09:30N 51°54' E 004°28'0 0.0
2015-Apr-19 08:33N 51°54' E 004°28'0 0.0
2015-Apr-19 07:33N 51°54' E 004°28'0 0.0
2015-Apr-19 06:33N 51°54' E 004°28'0 0.0
2015-Apr-19 05:33N 51°54' E 004°28'0 0.0
2015-Apr-19 04:33N 51°54' E 004°28'0 0.0
2015-Apr-19 03:33N 51°54' E 004°28'0 0.0
2015-Apr-19 02:27N 51°54' E 004°28'0 0.0
2015-Apr-19 01:33N 51°54' E 004°28'0 0.0
2015-Apr-19 00:33N 51°54' E 004°28'0 0.0
2015-Apr-18 23:27N 51°54' E 004°28'0 0.0
2015-Apr-18 22:33N 51°54' E 004°28'0 0.0
2015-Apr-18 21:33N 51°54' E 004°28'0 0.0
2015-Apr-18 20:30N 51°54' E 004°28'0 0.0
2015-Apr-18 19:33N 51°54' E 004°28'0 0.0
2015-Apr-18 18:33N 51°54' E 004°28'0 0.0
2015-Apr-18 17:30N 51°54' E 004°28'0 0.0
2015-Apr-18 16:33N 51°54' E 004°28'0 0.0
2015-Apr-18 15:33N 51°54' E 004°28'0 0.0
2015-Apr-18 14:33N 51°54' E 004°28'0 0.0
2015-Apr-18 13:33N 51°54' E 004°28'0 0.0
2015-Apr-18 12:33N 51°54' E 004°28'0 0.0
2015-Apr-18 11:30N 51°54' E 004°28'0 0.0
2015-Apr-18 10:33N 51°54' E 004°28'0 0.0
2015-Apr-18 09:33N 51°54' E 004°28'0 0.0
2015-Apr-18 08:27N 51°54' E 004°28'0 0.0
2015-Apr-18 07:33N 51°54' E 004°28'0 0.0
2015-Apr-18 06:30N 51°54' E 004°28'0 0.0
2015-Apr-18 05:33N 51°54' E 004°28'0 0.0
2015-Apr-18 04:33N 51°54' E 004°28'0 0.0
2015-Apr-18 03:33N 51°54' E 004°28'0 0.0
2015-Apr-18 02:33N 51°54' E 004°28'0 0.0
2015-Apr-18 01:30N 51°54' E 004°28'0 0.0
2015-Apr-18 00:32N 51°54' E 004°28'0 0.0
2015-Apr-17 23:29N 51°54' E 004°28'0 0.0
2015-Apr-17 22:32N 51°54' E 004°28'0 0.0
2015-Apr-17 21:32N 51°54' E 004°28'0 0.0
2015-Apr-17 20:26N 51°54' E 004°28'3 3.8
2015-Apr-17 19:33N 51°54' E 004°23'10 9.6
2015-Apr-17 18:33N 51°58' E 004°09'1 0.9
2015-Apr-17 17:31N 51°57' E 004°08'0 0.0
2015-Apr-17 16:31N 51°57' E 004°08'0 0.0
2015-Apr-17 15:31N 51°57' E 004°08'0 0.0
2015-Apr-17 14:34N 51°57' E 004°08'0 0.0
2015-Apr-17 13:34N 51°57' E 004°08'0 0.0
2015-Apr-17 12:33N 51°57' E 004°08'0 0.0
2015-Apr-17 11:33N 51°57' E 004°08'0 0.0
2015-Apr-17 10:33N 51°57' E 004°08'0 0.0
2015-Apr-17 09:34N 51°57' E 004°08'0 0.0
2015-Apr-17 08:34N 51°57' E 004°08'0 0.0
2015-Apr-17 07:34N 51°57' E 004°08'0 0.0
2015-Apr-17 06:34N 51°57' E 004°08'0 0.0
2015-Apr-17 05:34N 51°57' E 004°08'0 0.3
2015-Apr-17 04:34N 51°57' E 004°08'4 3.7
2015-Apr-17 03:33N 51°59' E 004°03'9 7.8
2015-Apr-17 02:26N 52°04' E 003°50'9 8.9
2015-Apr-17 01:24N 52°12' E 003°46'8 8.7
2015-Apr-17 00:31N 52°20' E 003°48'17 8.7
2015-Apr-16 22:32N 52°37' E 003°53'11 9.0
2015-Apr-16 21:17N 52°48' E 003°57'37 8.9
2015-Apr-16 17:05N 53°19' E 004°32'7 8.7
2015-Apr-16 16:16N 53°26' E 004°36'10 8.2
2015-Apr-16 15:03N 53°31' E 004°50'5 9.5
2015-Apr-16 14:33N 53°33' E 004°57'1010.1
2015-Apr-16 13:33N 53°37' E 005°13'1111.2
2015-Apr-16 12:33N 53°41' E 005°31'1211.6
2015-Apr-16 11:33N 53°44' E 005°50'59 9.8
2015-Apr-16 05:33N 53°60' E 007°26'8 7.9
2015-Apr-16 04:33N 54°02' E 007°38'9 9.1
2015-Apr-16 03:33N 54°02' E 007°54'10 9.5
2015-Apr-16 02:33N 54°01' E 008°10'1313.4
2015-Apr-16 01:34N 53°58' E 008°32'1413.7
2015-Apr-16 00:33N 53°50' E 008°51'1110.7
2015-Apr-15 23:34N 53°54' E 009°09'3 2.8
2015-Apr-15 22:34N 53°56' E 009°12'8 7.5
2015-Apr-15 21:34N 54°02' E 009°18'1 0.9
2015-Apr-15 20:34N 54°03' E 009°18'24 5.9
2015-Apr-15 16:33N 54°21' E 009°45'7 7.5
2015-Apr-15 15:33N 54°21' E 009°58'6 6.1
2015-Apr-15 14:33N 54°22' E 010°09'1 1.5
2015-Apr-15 13:33N 54°23' E 010°11'8 7.6
2015-Apr-15 12:33N 54°29' E 010°17'2510.9
2015-Apr-15 10:17N 54°36' E 010°58'810.4
2015-Apr-15 09:33N 54°36' E 011°11'1111.0
2015-Apr-15 08:33N 54°31' E 011°28'1111.0
2015-Apr-15 07:33N 54°27' E 011°45'1111.1
2015-Apr-15 06:33N 54°26' E 012°04'1210.2
2015-Apr-15 05:21N 54°37' E 012°15'910.9
2015-Apr-15 04:33N 54°42' E 012°28'7510.6
2015-Apr-14 21:29N 55°18' E 014°23'1011.0
2015-Apr-14 20:33N 55°25' E 014°34'1110.5
2015-Apr-14 19:33N 55°29' E 014°52'1110.4
2015-Apr-14 18:33N 55°32' E 015°10'1110.4
2015-Apr-14 17:30N 55°36' E 015°28'  
Track history (hours):
 
Tides and Currents Weather Stations Pressure Air Temp Water Temp Dewpoint Dewpoint Depression Visibility Wind Speed Wind Dir Waves Ship Positions

Flinterbrise

Last reported at 2015-Apr-24 07:06 UTC. Time now 2015-May-04 00:57 UTC.
Position N 55°38' E 015°30'.
Warning: this ship's position is 9 days out of date.

Length 83 m; draft 5.4 m.

Type: Cargo ship. MMSI: 246044000.

Date/timePositionNaut miles runAvg speedWind from/ knotsBaromVisibWave heightAir tempDewpointWater temp
2015-Apr-24 07:06N 55°38' E 015°30'6 9.7
2015-Apr-24 06:30N 55°35' E 015°21'9 9.6
2015-Apr-24 05:33N 55°31' E 015°07'10 9.7
2015-Apr-24 04:33N 55°27' E 014°51'10 9.6
2015-Apr-24 03:33N 55°22' E 014°37'10 9.5
2015-Apr-24 02:29N 55°14' E 014°26'9 9.3
2015-Apr-24 01:31N 55°07' E 014°16'28 9.6
2015-Apr-23 22:33N 54°54' E 013°32'29 9.7
2015-Apr-23 19:33N 54°45' E 012°44'9 9.2
2015-Apr-23 18:33N 54°39' E 012°33'9 9.3
2015-Apr-23 17:33N 54°33' E 012°20'9 9.0
2015-Apr-23 16:33N 54°25' E 012°11'9 9.4
2015-Apr-23 15:33N 54°25' E 011°55'9 9.3
2015-Apr-23 14:33N 54°27' E 011°39'10 9.9
2015-Apr-23 13:33N 54°31' E 011°24'10 9.8
2015-Apr-23 12:33N 54°35' E 011°09'21 9.7
2015-Apr-23 10:20N 54°33' E 010°32'910.9
2015-Apr-23 09:33N 54°29' E 010°19'9 6.4
2015-Apr-23 08:06N 54°22' E 010°09'2 2.4
2015-Apr-23 07:05N 54°22' E 010°04'4 7.8
2015-Apr-23 06:34N 54°21' E 009°58'27 6.7
2015-Apr-23 02:30N 54°05' E 009°19'6 6.3
2015-Apr-23 01:33N 53°59' E 009°17'8 7.6
2015-Apr-23 00:33N 53°54' E 009°09'2 1.6
2015-Apr-22 23:33N 53°53' E 009°06'9 8.5
2015-Apr-22 22:33N 53°50' E 008°53'8 7.7
2015-Apr-22 21:33N 53°54' E 008°41'8 7.8
2015-Apr-22 20:33N 53°58' E 008°30'10 8.5
2015-Apr-22 19:26N 53°59' E 008°14'11 9.7
2015-Apr-22 18:17N 53°58' E 007°55'6 8.5
2015-Apr-22 17:33N 53°57' E 007°45'8 8.2
2015-Apr-22 16:32N 53°56' E 007°31'62 8.9
2015-Apr-22 09:33N 53°39' E 005°50'9 9.2
2015-Apr-22 08:33N 53°35' E 005°35'10 9.7
2015-Apr-22 07:33N 53°32' E 005°20'1010.2
2015-Apr-22 06:33N 53°29' E 005°04'10 9.9
2015-Apr-22 05:32N 53°26' E 004°47'42 8.3
2015-Apr-22 00:32N 52°49' E 004°13'8 8.2
2015-Apr-21 23:33N 52°43' E 004°06'8 8.0
2015-Apr-21 22:33N 52°36' E 003°60'16 8.0
2015-Apr-21 20:33N 52°20' E 003°52'9 8.9
2015-Apr-21 19:31N 52°11' E 003°54'9 9.6
2015-Apr-21 18:32N 52°02' E 003°57'1010.0
2015-Apr-21 17:33N 51°57' E 004°11'9 8.9
2015-Apr-21 16:33N 51°54' E 004°25'0 0.4
2015-Apr-21 15:33N 51°54' E 004°25'0 0.0
2015-Apr-21 14:33N 51°54' E 004°25'0 0.0
2015-Apr-21 13:33N 51°54' E 004°25'0 0.2
2015-Apr-21 12:33N 51°54' E 004°25'0 0.2
2015-Apr-21 11:33N 51°54' E 004°25'2 1.7
2015-Apr-21 10:33N 51°54' E 004°28'0 0.2
2015-Apr-21 09:33N 51°54' E 004°28'0 0.0
2015-Apr-21 08:30N 51°54' E 004°28'0 0.0
2015-Apr-21 07:33N 51°54' E 004°28'0 0.0
2015-Apr-21 06:33N 51°54' E 004°28'0 0.0
2015-Apr-21 05:27N 51°54' E 004°28'0 0.0
2015-Apr-21 04:29N 51°54' E 004°28'0 0.0
2015-Apr-21 03:32N 51°54' E 004°28'0 0.0
2015-Apr-21 02:32N 51°54' E 004°28'0 0.0
2015-Apr-21 01:14N 51°54' E 004°28'0 0.0
2015-Apr-21 00:32N 51°54' E 004°28'0 0.0
2015-Apr-20 23:32N 51°54' E 004°28'0 0.0
2015-Apr-20 22:32N 51°54' E 004°28'0 0.0
2015-Apr-20 21:32N 51°54' E 004°28'0 0.0
2015-Apr-20 20:32N 51°54' E 004°28'0 0.0
2015-Apr-20 19:32N 51°54' E 004°28'0 0.0
2015-Apr-20 18:32N 51°54' E 004°28'0 0.0
2015-Apr-20 17:26N 51°54' E 004°28'0 0.0
2015-Apr-20 16:32N 51°54' E 004°28'0 0.0
2015-Apr-20 15:32N 51°54' E 004°28'0 0.0
2015-Apr-20 14:29N 51°54' E 004°28'0 0.0
2015-Apr-20 13:33N 51°54' E 004°28'0 0.0
2015-Apr-20 12:29N 51°54' E 004°28'0 0.0
2015-Apr-20 11:32N 51°54' E 004°28'0 0.0
2015-Apr-20 10:29N 51°54' E 004°28'0 0.0
2015-Apr-20 09:32N 51°54' E 004°28'0 0.0
2015-Apr-20 08:32N 51°54' E 004°28'0 0.0
2015-Apr-20 07:32N 51°54' E 004°28'0 0.0
2015-Apr-20 06:33N 51°54' E 004°28'0 0.0
2015-Apr-20 05:32N 51°54' E 004°28'0 0.0
2015-Apr-20 04:30N 51°54' E 004°28'0 0.0
2015-Apr-20 03:32N 51°54' E 004°28'0 0.0
2015-Apr-20 02:32N 51°54' E 004°28'0 0.0
2015-Apr-20 01:32N 51°54' E 004°28'0 0.0
2015-Apr-20 00:32N 51°54' E 004°28'0 0.0
2015-Apr-19 23:29N 51°54' E 004°28'0 0.0
2015-Apr-19 22:32N 51°54' E 004°28'0 0.0
2015-Apr-19 21:32N 51°54' E 004°28'0 0.0
2015-Apr-19 20:32N 51°54' E 004°28'0 0.0
2015-Apr-19 19:32N 51°54' E 004°28'0 0.0
2015-Apr-19 18:32N 51°54' E 004°28'0 0.0
2015-Apr-19 17:32N 51°54' E 004°28'0 0.0
2015-Apr-19 16:32N 51°54' E 004°28'0 0.0
2015-Apr-19 15:32N 51°54' E 004°28'0 0.0
2015-Apr-19 14:32N 51°54' E 004°28'0 0.0
2015-Apr-19 13:29N 51°54' E 004°28'0 0.0
2015-Apr-19 12:32N 51°54' E 004°28'0 0.0
2015-Apr-19 11:30N 51°54' E 004°28'0 0.0
2015-Apr-19 10:24N 51°54' E 004°28'0 0.0
2015-Apr-19 09:30N 51°54' E 004°28'0 0.0
2015-Apr-19 08:33N 51°54' E 004°28'0 0.0
2015-Apr-19 07:33N 51°54' E 004°28'0 0.0
2015-Apr-19 06:33N 51°54' E 004°28'0 0.0
2015-Apr-19 05:33N 51°54' E 004°28'0 0.0
2015-Apr-19 04:33N 51°54' E 004°28'0 0.0
2015-Apr-19 03:33N 51°54' E 004°28'0 0.0
2015-Apr-19 02:27N 51°54' E 004°28'0 0.0
2015-Apr-19 01:33N 51°54' E 004°28'0 0.0
2015-Apr-19 00:33N 51°54' E 004°28'0 0.0
2015-Apr-18 23:27N 51°54' E 004°28'0 0.0
2015-Apr-18 22:33N 51°54' E 004°28'0 0.0
2015-Apr-18 21:33N 51°54' E 004°28'0 0.0
2015-Apr-18 20:30N 51°54' E 004°28'0 0.0
2015-Apr-18 19:33N 51°54' E 004°28'0 0.0
2015-Apr-18 18:33N 51°54' E 004°28'0 0.0
2015-Apr-18 17:30N 51°54' E 004°28'0 0.0
2015-Apr-18 16:33N 51°54' E 004°28'0 0.0
2015-Apr-18 15:33N 51°54' E 004°28'0 0.0
2015-Apr-18 14:33N 51°54' E 004°28'0 0.0
2015-Apr-18 13:33N 51°54' E 004°28'0 0.0
2015-Apr-18 12:33N 51°54' E 004°28'0 0.0
2015-Apr-18 11:30N 51°54' E 004°28'0 0.0
2015-Apr-18 10:33N 51°54' E 004°28'0 0.0
2015-Apr-18 09:33N 51°54' E 004°28'0 0.0
2015-Apr-18 08:27N 51°54' E 004°28'0 0.0
2015-Apr-18 07:33N 51°54' E 004°28'0 0.0
2015-Apr-18 06:30N 51°54' E 004°28'0 0.0
2015-Apr-18 05:33N 51°54' E 004°28'0 0.0
2015-Apr-18 04:33N 51°54' E 004°28'0 0.0
2015-Apr-18 03:33N 51°54' E 004°28'0 0.0
2015-Apr-18 02:33N 51°54' E 004°28'0 0.0
2015-Apr-18 01:30N 51°54' E 004°28'0 0.0
2015-Apr-18 00:32N 51°54' E 004°28'0 0.0
2015-Apr-17 23:29N 51°54' E 004°28'0 0.0
2015-Apr-17 22:32N 51°54' E 004°28'0 0.0
2015-Apr-17 21:32N 51°54' E 004°28'0 0.0
2015-Apr-17 20:26N 51°54' E 004°28'3 3.8
2015-Apr-17 19:33N 51°54' E 004°23'10 9.6
2015-Apr-17 18:33N 51°58' E 004°09'1 0.9
2015-Apr-17 17:31N 51°57' E 004°08'0 0.0
2015-Apr-17 16:31N 51°57' E 004°08'0 0.0
2015-Apr-17 15:31N 51°57' E 004°08'0 0.0
2015-Apr-17 14:34N 51°57' E 004°08'0 0.0
2015-Apr-17 13:34N 51°57' E 004°08'0 0.0
2015-Apr-17 12:33N 51°57' E 004°08'0 0.0
2015-Apr-17 11:33N 51°57' E 004°08'0 0.0
2015-Apr-17 10:33N 51°57' E 004°08'0 0.0
2015-Apr-17 09:34N 51°57' E 004°08'0 0.0
2015-Apr-17 08:34N 51°57' E 004°08'0 0.0
2015-Apr-17 07:34N 51°57' E 004°08'0 0.0
2015-Apr-17 06:34N 51°57' E 004°08'0 0.0
2015-Apr-17 05:34N 51°57' E 004°08'0 0.3
2015-Apr-17 04:34N 51°57' E 004°08'4 3.7
2015-Apr-17 03:33N 51°59' E 004°03'9 7.8
2015-Apr-17 02:26N 52°04' E 003°50'9 8.9
2015-Apr-17 01:24N 52°12' E 003°46'8 8.7
2015-Apr-17 00:31N 52°20' E 003°48'17 8.7
2015-Apr-16 22:32N 52°37' E 003°53'11 9.0
2015-Apr-16 21:17N 52°48' E 003°57'37 8.9
2015-Apr-16 17:05N 53°19' E 004°32'7 8.7
2015-Apr-16 16:16N 53°26' E 004°36'10 8.2
2015-Apr-16 15:03N 53°31' E 004°50'5 9.5
2015-Apr-16 14:33N 53°33' E 004°57'1010.1
2015-Apr-16 13:33N 53°37' E 005°13'1111.2
2015-Apr-16 12:33N 53°41' E 005°31'1211.6
2015-Apr-16 11:33N 53°44' E 005°50'59 9.8
2015-Apr-16 05:33N 53°60' E 007°26'8 7.9
2015-Apr-16 04:33N 54°02' E 007°38'9 9.1
2015-Apr-16 03:33N 54°02' E 007°54'10 9.5
2015-Apr-16 02:33N 54°01' E 008°10'1313.4
2015-Apr-16 01:34N 53°58' E 008°32'1413.7
2015-Apr-16 00:33N 53°50' E 008°51'1110.7
2015-Apr-15 23:34N 53°54' E 009°09'3 2.8
2015-Apr-15 22:34N 53°56' E 009°12'8 7.5
2015-Apr-15 21:34N 54°02' E 009°18'1 0.9
2015-Apr-15 20:34N 54°03' E 009°18'24 5.9
2015-Apr-15 16:33N 54°21' E 009°45'7 7.5
2015-Apr-15 15:33N 54°21' E 009°58'6 6.1
2015-Apr-15 14:33N 54°22' E 010°09'1 1.5
2015-Apr-15 13:33N 54°23' E 010°11'8 7.6
2015-Apr-15 12:33N 54°29' E 010°17'2510.9
2015-Apr-15 10:17N 54°36' E 010°58'810.4
2015-Apr-15 09:33N 54°36' E 011°11'1111.0
2015-Apr-15 08:33N 54°31' E 011°28'1111.0
2015-Apr-15 07:33N 54°27' E 011°45'1111.1
2015-Apr-15 06:33N 54°26' E 012°04'1210.2
2015-Apr-15 05:21N 54°37' E 012°15'910.9
2015-Apr-15 04:33N 54°42' E 012°28'7510.6
2015-Apr-14 21:29N 55°18' E 014°23'1011.0
2015-Apr-14 20:33N 55°25' E 014°34'1110.5
2015-Apr-14 19:33N 55°29' E 014°52'1110.4
2015-Apr-14 18:33N 55°32' E 015°10'1110.4
2015-Apr-14 17:30N 55°36' E 015°28'  

Dump ship's entire track history